createdAt,value
2023-04-25T00:01:55.138Z,6.07
2023-04-25T00:04:28.754Z,6.70
2023-04-25T00:07:02.611Z,5.20
2023-04-25T00:09:34.486Z,5.10
2023-04-25T00:12:06.462Z,4.80
2023-04-25T00:14:39.014Z,4.40
2023-04-25T00:17:12.276Z,5.00
2023-04-25T00:19:45.768Z,4.03
2023-04-25T00:22:18.471Z,4.33
2023-04-25T00:24:50.365Z,4.30
2023-04-25T00:27:22.313Z,4.47
2023-04-25T00:29:54.277Z,4.23
2023-04-25T00:32:26.281Z,3.73
2023-04-25T00:34:59.064Z,3.97
2023-04-25T00:37:30.841Z,4.17
2023-04-25T00:40:03.462Z,3.67
2023-04-25T00:42:36.974Z,3.87
2023-04-25T00:45:08.981Z,3.70
2023-04-25T00:47:41.472Z,3.87
2023-04-25T00:50:13.465Z,3.40
2023-04-25T00:52:45.640Z,3.53
2023-04-25T00:55:17.559Z,3.70
2023-04-25T00:57:50.317Z,3.90
2023-04-25T01:00:22.094Z,3.40
2023-04-25T01:02:54.139Z,3.47
2023-04-25T01:05:26.274Z,3.27
2023-04-25T01:07:58.227Z,3.30
2023-04-25T01:10:29.988Z,3.10
2023-04-25T01:13:01.730Z,2.80
2023-04-25T01:15:33.491Z,3.40
2023-04-25T01:18:06.569Z,3.47
2023-04-25T01:20:38.445Z,2.80
2023-04-25T01:23:10.456Z,2.90
2023-04-25T01:25:42.325Z,2.93
2023-04-25T01:28:14.182Z,2.97
2023-04-25T01:30:45.983Z,3.37
2023-04-25T01:33:17.889Z,3.03
2023-04-25T01:35:49.808Z,2.50
2023-04-25T01:38:25.702Z,2.90
2023-04-25T01:40:57.473Z,2.77
2023-04-25T01:43:29.265Z,3.17
2023-04-25T01:46:01.804Z,3.37
2023-04-25T01:48:33.986Z,3.03
2023-04-25T01:51:05.947Z,2.60
2023-04-25T01:53:38.099Z,2.97
2023-04-25T01:56:10.956Z,2.67
2023-04-25T01:58:42.867Z,2.87
2023-04-25T02:01:27.244Z,3.00
2023-04-25T02:04:16.869Z,3.03
2023-04-25T02:06:49.634Z,2.57
2023-04-25T02:09:21.848Z,2.57
2023-04-25T02:11:59.240Z,3.40
2023-04-25T02:14:35.018Z,2.60
2023-04-25T02:17:29.840Z,2.73
2023-04-25T02:20:01.853Z,3.23
2023-04-25T02:22:35.052Z,2.70
2023-04-25T02:25:07.457Z,2.80
2023-04-25T02:27:39.791Z,2.97
2023-04-25T02:30:13.300Z,2.97
2023-04-25T02:32:45.165Z,2.97
2023-04-25T02:35:16.928Z,3.33
2023-04-25T02:37:49.014Z,3.47
2023-04-25T02:40:21.046Z,2.83
2023-04-25T02:42:52.951Z,2.87
2023-04-25T02:45:24.661Z,3.13
2023-04-25T02:47:56.362Z,2.83
2023-04-25T02:50:28.477Z,2.97
2023-04-25T02:53:00.444Z,3.23
2023-04-25T02:55:38.637Z,2.67
2023-04-25T02:58:11.342Z,3.47
2023-04-25T03:00:56.086Z,2.40
2023-04-25T03:03:28.039Z,2.47
2023-04-25T03:06:00.233Z,2.63
2023-04-25T03:08:36.672Z,2.43
2023-04-25T03:11:08.405Z,2.67
2023-04-25T03:13:40.553Z,2.50
2023-04-25T03:16:14.072Z,2.40
2023-04-25T03:18:45.863Z,2.20
2023-04-25T03:21:18.087Z,2.70
2023-04-25T03:23:50.147Z,2.40
2023-04-25T03:26:22.493Z,2.27
2023-04-25T03:28:54.425Z,2.73
2023-04-25T03:31:26.308Z,2.20
2023-04-25T03:33:58.054Z,2.40
2023-04-25T03:36:30.066Z,2.43
2023-04-25T03:39:01.794Z,2.10
2023-04-25T03:41:35.979Z,2.10
2023-04-25T03:44:13.199Z,2.30
2023-04-25T03:46:45.743Z,2.47
2023-04-25T03:49:19.389Z,1.90
2023-04-25T03:52:06.693Z,2.17
2023-04-25T03:54:42.178Z,2.03
2023-04-25T03:57:17.306Z,2.33
2023-04-25T03:59:49.466Z,1.73
2023-04-25T04:02:21.580Z,1.60
2023-04-25T04:04:54.433Z,1.70
2023-04-25T04:07:27.150Z,2.10
2023-04-25T04:10:02.082Z,2.10
2023-04-25T04:12:43.050Z,1.60
2023-04-25T04:15:14.882Z,1.77
2023-04-25T04:17:49.750Z,1.73
2023-04-25T04:20:22.822Z,1.60
2023-04-25T04:25:42.923Z,1.90
2023-04-25T04:28:32.929Z,1.97
2023-04-25T04:31:11.072Z,1.60
2023-04-25T04:33:43.253Z,1.60
2023-04-25T04:36:15.124Z,1.70
2023-04-25T04:38:47.359Z,1.90
2023-04-25T04:41:27.417Z,1.50
2023-04-25T04:44:11.226Z,1.70
2023-04-25T04:47:04.812Z,1.70
2023-04-25T04:49:45.690Z,1.83
2023-04-25T04:52:38.179Z,1.37
2023-04-25T04:55:38.671Z,1.60
2023-04-25T04:58:30.761Z,1.40
2023-04-25T05:01:30.208Z,1.50
2023-04-25T05:04:11.862Z,1.60
2023-04-25T05:06:48.750Z,1.60
2023-04-25T05:09:20.873Z,1.60
2023-04-25T05:12:28.416Z,1.70
2023-04-25T05:15:18.370Z,1.43
2023-04-25T05:17:56.089Z,1.33
2023-04-25T05:20:38.614Z,1.40
2023-04-25T05:23:32.626Z,1.87
2023-04-25T05:26:15.776Z,1.60
2023-04-25T05:29:10.291Z,1.47
2023-04-25T05:32:06.442Z,1.60
2023-04-25T05:34:38.332Z,1.30
2023-04-25T05:37:17.207Z,1.27
2023-04-25T05:39:59.426Z,1.23
2023-04-25T05:42:52.701Z,1.27
2023-04-25T05:45:32.917Z,1.30
2023-04-25T05:48:27.674Z,1.33
2023-04-25T05:51:06.313Z,1.20
2023-04-25T05:53:47.077Z,1.67
2023-04-25T05:56:20.981Z,1.60
2023-04-25T05:58:56.537Z,1.50
2023-04-25T06:01:28.244Z,1.30
2023-04-25T06:04:00.222Z,1.67
2023-04-25T06:06:32.779Z,1.70
2023-04-25T06:09:04.896Z,1.60
2023-04-25T06:11:37.133Z,1.40
2023-04-25T06:14:08.927Z,1.50
2023-04-25T06:16:44.256Z,1.73
2023-04-25T06:19:16.460Z,1.47
2023-04-25T06:21:48.546Z,1.70
2023-04-25T06:24:20.451Z,1.60
2023-04-25T06:26:52.512Z,1.40
2023-04-25T06:29:24.245Z,1.60
2023-04-25T06:31:56.154Z,1.60
2023-04-25T06:34:27.981Z,1.63
2023-04-25T06:36:59.826Z,1.77
2023-04-25T06:39:31.815Z,1.70
2023-04-25T06:42:03.893Z,1.57
2023-04-25T06:44:54.336Z,1.40
2023-04-25T06:47:27.287Z,1.17
2023-04-25T06:49:59.396Z,1.67
2023-04-25T06:52:31.407Z,1.50
2023-04-25T06:55:03.870Z,1.33
2023-04-25T06:58:01.054Z,1.23
2023-04-25T07:00:53.301Z,1.37
2023-04-25T07:03:27.891Z,1.40
2023-04-25T07:06:06.714Z,1.60
2023-04-25T07:08:38.456Z,1.50
2023-04-25T07:11:10.220Z,1.43
2023-04-25T07:13:42.794Z,1.37
2023-04-25T07:16:14.659Z,1.63
2023-04-25T07:18:46.495Z,1.50
2023-04-25T07:21:19.023Z,1.40
2023-04-25T07:23:52.101Z,1.30
2023-04-25T07:26:29.047Z,1.53
2023-04-25T07:29:23.420Z,1.37
2023-04-25T07:31:55.328Z,1.30
2023-04-25T07:34:27.705Z,1.40
2023-04-25T07:37:00.574Z,1.50
2023-04-25T07:39:38.507Z,1.20
2023-04-25T07:42:11.173Z,1.37
2023-04-25T07:44:46.148Z,1.27
2023-04-25T07:47:20.392Z,1.20
2023-04-25T07:49:52.563Z,1.20
2023-04-25T07:52:24.538Z,0.97
2023-04-25T07:55:05.599Z,1.40
2023-04-25T07:57:54.241Z,1.00
2023-04-25T08:00:26.253Z,1.23
2023-04-25T08:03:14.583Z,1.10
2023-04-25T08:05:47.729Z,1.07
2023-04-25T08:08:19.826Z,1.20
2023-04-25T08:10:52.310Z,1.20
2023-04-25T08:13:24.143Z,1.17
2023-04-25T08:15:56.058Z,1.20
2023-04-25T08:18:28.070Z,0.93
2023-04-25T08:21:00.075Z,1.17
2023-04-25T08:23:31.889Z,1.40
2023-04-25T08:26:09.550Z,1.40
2023-04-25T08:28:43.717Z,1.13
2023-04-25T08:31:16.117Z,0.90
2023-04-25T08:33:57.427Z,1.33
2023-04-25T08:36:40.126Z,1.50
2023-04-25T08:39:32.546Z,1.30
2023-04-25T08:42:23.522Z,1.20
2023-04-25T08:44:56.323Z,1.53
2023-04-25T08:47:31.833Z,1.53
2023-04-25T08:50:04.255Z,1.60
2023-04-25T08:52:44.451Z,1.87
2023-04-25T08:55:16.480Z,1.53
2023-04-25T08:57:48.890Z,1.37
2023-04-25T09:00:21.887Z,1.30
2023-04-25T09:02:54.000Z,2.33
2023-04-25T09:05:26.248Z,1.60
2023-04-25T09:07:59.256Z,1.60
2023-04-25T09:13:07.181Z,1.77
2023-04-25T09:16:00.179Z,1.50
2023-04-25T09:18:50.623Z,1.50
2023-04-25T09:21:23.501Z,1.63
2023-04-25T09:23:56.006Z,1.20
2023-04-25T09:26:28.444Z,1.20
2023-04-25T09:29:08.270Z,1.30
2023-04-25T09:31:43.248Z,1.37
2023-04-25T09:34:18.176Z,1.33
2023-04-25T09:37:03.212Z,1.37
2023-04-25T09:40:00.390Z,1.37
2023-04-25T09:42:33.100Z,1.50
2023-04-25T09:45:05.893Z,1.63
2023-04-25T09:47:45.148Z,1.20
2023-04-25T09:50:20.090Z,1.40
2023-04-25T09:53:06.704Z,1.47
2023-04-25T09:55:57.806Z,1.47
2023-04-25T09:58:33.116Z,1.50
2023-04-25T10:01:07.685Z,1.10
2023-04-25T10:03:48.760Z,1.53
2023-04-25T10:06:39.282Z,1.30
2023-04-25T10:09:11.593Z,1.30
2023-04-25T10:11:44.195Z,1.30
2023-04-25T10:14:16.005Z,1.60
2023-04-25T10:16:48.494Z,1.37
2023-04-25T10:19:21.030Z,1.67
2023-04-25T10:22:04.908Z,1.93
2023-04-25T10:24:38.301Z,1.80
2023-04-25T10:27:10.374Z,1.80
2023-04-25T10:29:43.124Z,1.90
2023-04-25T10:32:15.879Z,2.00
2023-04-25T10:34:49.559Z,1.80
2023-04-25T10:37:21.423Z,1.90
2023-04-25T10:39:54.311Z,1.67
2023-04-25T10:42:26.300Z,1.70
2023-04-25T10:45:08.848Z,1.77
2023-04-25T10:47:47.186Z,1.70
2023-04-25T10:50:19.037Z,2.03
2023-04-25T10:52:50.785Z,2.10
2023-04-25T10:55:22.759Z,1.73
2023-04-25T10:57:54.547Z,2.00
2023-04-25T11:00:38.349Z,2.17
2023-04-25T11:03:22.795Z,1.97
2023-04-25T11:08:51.163Z,2.00
2023-04-25T11:11:23.227Z,1.90
2023-04-25T11:13:55.110Z,1.90
2023-04-25T11:14:37.838Z,2.10
2023-04-25T11:16:28.245Z,2.37
2023-04-25T11:19:00.509Z,1.90
2023-04-25T11:21:32.924Z,2.10
2023-04-25T11:24:04.854Z,2.00
2023-04-25T11:26:38.555Z,2.13
2023-04-25T11:29:10.408Z,2.20
2023-04-25T11:31:46.871Z,2.00
2023-04-25T11:34:19.641Z,2.40
2023-04-25T11:36:51.470Z,2.10
2023-04-25T11:39:23.292Z,2.00
2023-04-25T11:41:55.361Z,2.40
2023-04-25T11:44:27.326Z,2.70
2023-04-25T11:46:59.136Z,2.53
2023-04-25T11:49:33.745Z,2.20
2023-04-25T11:52:08.279Z,2.43
2023-04-25T11:54:40.325Z,2.73
2023-04-25T11:57:12.750Z,2.33
2023-04-25T11:59:45.080Z,2.50
2023-04-25T12:02:27.053Z,2.90
2023-04-25T12:05:11.857Z,2.53
2023-04-25T12:07:52.815Z,2.90
2023-04-25T12:10:26.013Z,2.60
2023-04-25T12:12:57.916Z,2.57
2023-04-25T12:15:29.871Z,2.40
2023-04-25T12:18:02.036Z,2.50
2023-04-25T12:20:33.930Z,2.63
2023-04-25T12:23:09.044Z,2.50
2023-04-25T12:25:45.779Z,2.80
2023-04-25T12:28:21.178Z,2.70
2023-04-25T12:31:04.266Z,2.90
2023-04-25T12:33:37.190Z,2.70
2023-04-25T12:36:13.268Z,2.90
2023-04-25T12:38:45.089Z,2.67
2023-04-25T12:41:17.532Z,2.70
2023-04-25T12:43:49.517Z,3.07
2023-04-25T12:46:21.624Z,2.90
2023-04-25T12:48:53.543Z,3.47
2023-04-25T12:51:26.157Z,2.83
2023-04-25T12:53:57.984Z,3.10
2023-04-25T12:56:30.246Z,3.13
2023-04-25T12:59:02.059Z,2.90
2023-04-25T13:01:35.661Z,3.13
2023-04-25T13:04:08.679Z,2.83
2023-04-25T13:06:40.826Z,2.80
2023-04-25T13:09:13.623Z,3.27
2023-04-25T13:11:47.041Z,3.27
2023-04-25T13:14:19.155Z,3.20
2023-04-25T13:16:51.024Z,3.60
2023-04-25T13:19:22.992Z,3.30
2023-04-25T13:21:54.801Z,3.43
2023-04-25T13:24:27.115Z,3.57
2023-04-25T13:26:59.041Z,3.63
2023-04-25T13:29:30.994Z,4.07
2023-04-25T13:32:03.185Z,4.00
2023-04-25T13:34:34.994Z,3.50
2023-04-25T13:37:07.477Z,4.00
2023-04-25T13:39:39.248Z,3.33
2023-04-25T13:42:12.345Z,3.57
2023-04-25T13:44:44.238Z,3.70
2023-04-25T13:47:16.155Z,3.67
2023-04-25T13:49:47.993Z,3.60
2023-04-25T13:52:19.993Z,4.43
2023-04-25T13:54:52.222Z,4.23
2023-04-25T13:57:24.220Z,4.57
2023-04-25T13:59:56.078Z,3.80
2023-04-25T14:02:27.945Z,4.60
2023-04-25T14:05:00.591Z,4.23
2023-04-25T14:07:32.542Z,4.37
2023-04-25T14:10:05.939Z,4.27
2023-04-25T14:12:37.774Z,5.00
2023-04-25T14:15:09.974Z,5.20
2023-04-25T14:17:41.937Z,3.90
2023-04-25T14:20:14.265Z,4.27
2023-04-25T14:22:46.220Z,4.20
2023-04-25T14:25:18.545Z,4.83
2023-04-25T14:27:58.134Z,4.60
2023-04-25T14:30:29.940Z,4.73
2023-04-25T14:33:01.682Z,4.27
2023-04-25T14:35:33.521Z,4.63
2023-04-25T14:38:06.402Z,4.53
2023-04-25T14:40:39.151Z,4.63
2023-04-25T14:43:11.202Z,4.53
2023-04-25T14:45:46.827Z,4.30
2023-04-25T14:48:20.506Z,4.30
2023-04-25T14:50:52.420Z,4.60
2023-04-25T14:53:24.457Z,4.87
2023-04-25T14:55:58.051Z,4.97
2023-04-25T14:58:30.596Z,5.00
2023-04-25T15:01:02.403Z,4.33
2023-04-25T15:03:34.370Z,5.17
2023-04-25T15:06:07.309Z,4.43
2023-04-25T15:08:39.153Z,4.40
2023-04-25T15:11:12.141Z,4.47
2023-04-25T15:13:44.173Z,3.47
2023-04-25T15:16:16.503Z,4.57
2023-04-25T15:18:48.420Z,5.50
2023-04-25T15:21:20.562Z,4.50
2023-04-25T15:23:52.667Z,4.50
2023-04-25T15:26:24.714Z,4.40
2023-04-25T15:28:56.920Z,4.67
2023-04-25T15:31:28.735Z,4.53
2023-04-25T15:34:01.186Z,4.53
2023-04-25T15:36:33.292Z,4.77
2023-04-25T15:39:05.338Z,4.80
2023-04-25T15:41:37.653Z,5.47
2023-04-25T15:44:11.210Z,4.80
2023-04-25T15:46:45.517Z,4.97
2023-04-25T15:49:17.294Z,5.90
2023-04-25T15:51:49.793Z,4.80
2023-04-25T15:54:22.174Z,5.00
2023-04-25T15:56:53.946Z,7.43
2023-04-25T15:59:25.763Z,5.43
2023-04-25T16:01:57.874Z,5.43
2023-04-25T16:04:35.399Z,5.30
2023-04-25T16:07:08.358Z,5.60
2023-04-25T16:09:40.276Z,5.00
2023-04-25T16:12:12.188Z,5.83
2023-04-25T16:14:44.158Z,6.13
2023-04-25T16:17:16.814Z,5.30
2023-04-25T16:19:50.309Z,6.40
2023-04-25T16:22:22.197Z,6.17
2023-04-25T16:24:53.906Z,5.33
2023-04-25T16:27:25.846Z,5.37
2023-04-25T16:29:57.571Z,5.53
2023-04-25T16:32:29.448Z,5.23
2023-04-25T16:35:01.323Z,5.37
2023-04-25T16:37:33.265Z,5.73
2023-04-25T16:40:08.992Z,5.67
2023-04-25T16:42:40.823Z,5.87
2023-04-25T16:45:13.563Z,5.97
2023-04-25T16:47:46.227Z,6.03
2023-04-25T16:50:19.129Z,5.53
2023-04-25T16:52:51.257Z,6.23
2023-04-25T16:55:22.971Z,5.47
2023-04-25T16:57:55.113Z,5.00
2023-04-25T17:00:26.941Z,4.83
2023-04-25T17:02:58.933Z,4.90
2023-04-25T17:05:30.868Z,5.10
2023-04-25T17:08:02.771Z,4.93
2023-04-25T17:10:34.467Z,5.07
2023-04-25T17:13:06.336Z,5.50
2023-04-25T17:15:38.071Z,5.10
2023-04-25T17:18:09.879Z,4.97
2023-04-25T17:20:41.823Z,4.23
2023-04-25T17:23:13.592Z,4.17
2023-04-25T17:25:45.592Z,4.90
2023-04-25T17:28:17.448Z,4.93
2023-04-25T17:30:49.333Z,4.87
2023-04-25T17:33:21.123Z,4.53
2023-04-25T17:35:54.289Z,4.40
2023-04-25T17:38:26.385Z,4.43
2023-04-25T17:40:58.496Z,4.77
2023-04-25T17:43:31.643Z,4.67
2023-04-25T17:46:06.070Z,4.57
2023-04-25T17:48:37.826Z,5.23
2023-04-25T17:51:09.649Z,4.40
2023-04-25T17:53:41.473Z,4.40
2023-04-25T17:56:26.038Z,4.70
2023-04-25T17:58:59.258Z,4.60
2023-04-25T18:01:31.154Z,4.40
2023-04-25T18:04:04.340Z,5.60
2023-04-25T18:06:36.493Z,5.00
2023-04-25T18:09:16.094Z,4.40
2023-04-25T18:11:48.104Z,4.67
2023-04-25T18:14:20.556Z,4.83
2023-04-25T18:16:53.743Z,5.63
2023-04-25T18:19:25.536Z,5.03
2023-04-25T18:21:58.634Z,4.53
2023-04-25T18:24:30.496Z,5.13
2023-04-25T18:27:05.860Z,5.30
2023-04-25T18:29:37.973Z,4.17
2023-04-25T18:32:10.058Z,5.17
2023-04-25T18:34:43.918Z,5.30
2023-04-25T18:37:16.485Z,5.63
2023-04-25T18:39:48.233Z,5.10
2023-04-25T18:42:20.552Z,4.93
2023-04-25T18:44:52.549Z,5.57
2023-04-25T18:47:24.704Z,5.47
2023-04-25T18:49:56.555Z,5.17
2023-04-25T18:52:28.453Z,5.67
2023-04-25T18:55:00.236Z,5.13
2023-04-25T18:57:32.131Z,6.13
2023-04-25T19:00:05.260Z,6.07
2023-04-25T19:02:37.275Z,5.30
2023-04-25T19:05:10.454Z,5.43
2023-04-25T19:07:42.365Z,6.20
2023-04-25T19:10:14.365Z,5.93
2023-04-25T19:12:46.100Z,6.07
2023-04-25T19:15:18.031Z,5.70
2023-04-25T19:17:50.043Z,6.03
2023-04-25T19:20:21.882Z,7.23
2023-04-25T19:22:54.639Z,6.37
2023-04-25T19:25:26.522Z,6.47
2023-04-25T19:28:00.569Z,6.17
2023-04-25T19:30:33.798Z,5.73
2023-04-25T19:33:05.704Z,6.20
2023-04-25T19:35:37.583Z,6.67
2023-04-25T19:38:09.317Z,6.90
2023-04-25T19:40:41.282Z,6.33
2023-04-25T19:43:13.248Z,7.33
2023-04-25T19:45:45.373Z,6.40
2023-04-25T19:48:17.091Z,6.93
2023-04-25T19:50:48.994Z,6.77
2023-04-25T19:53:20.733Z,7.03
2023-04-25T19:55:52.488Z,7.07
2023-04-25T19:58:24.345Z,6.80
2023-04-25T20:00:57.678Z,7.40
2023-04-25T20:03:29.658Z,7.00
2023-04-25T20:06:01.614Z,7.27
2023-04-25T20:08:33.319Z,7.17
2023-04-25T20:11:05.182Z,6.37
2023-04-25T20:13:37.124Z,7.43
2023-04-25T20:16:09.003Z,7.00
2023-04-25T20:18:41.595Z,7.77
2023-04-25T20:21:13.367Z,6.70
2023-04-25T20:23:45.701Z,8.03
2023-04-25T20:26:17.611Z,7.00
2023-04-25T20:28:49.517Z,7.77
2023-04-25T20:31:22.327Z,7.07
2023-04-25T20:33:54.079Z,8.10
2023-04-25T20:36:27.430Z,7.57
2023-04-25T20:38:59.217Z,7.50
2023-04-25T20:41:31.581Z,8.07
2023-04-25T20:44:03.775Z,7.20
2023-04-25T20:46:36.332Z,8.27
2023-04-25T20:49:08.312Z,7.17
2023-04-25T20:51:40.146Z,7.07
2023-04-25T20:54:13.242Z,8.07
2023-04-25T20:56:45.417Z,7.30
2023-04-25T20:59:17.127Z,8.13
2023-04-25T21:01:48.881Z,6.87
2023-04-25T21:04:21.480Z,8.20
2023-04-25T21:06:53.776Z,8.00
2023-04-25T21:09:25.744Z,6.27
2023-04-25T21:11:57.481Z,7.73
2023-04-25T21:14:29.320Z,7.63
2023-04-25T21:17:01.082Z,7.87
2023-04-25T21:19:33.161Z,7.20
2023-04-25T21:22:05.025Z,6.80
2023-04-25T21:24:37.503Z,7.27
2023-04-25T21:27:09.410Z,7.93
2023-04-25T21:29:41.225Z,6.70
2023-04-25T21:32:16.880Z,7.80
2023-04-25T21:34:49.112Z,7.53
2023-04-25T21:37:22.291Z,8.17
2023-04-25T21:39:54.389Z,7.03
2023-04-25T21:42:26.150Z,7.20
2023-04-25T21:44:57.928Z,7.73
2023-04-25T21:47:29.913Z,6.83
2023-04-25T21:50:01.914Z,7.50
2023-04-25T21:52:33.768Z,7.07
2023-04-25T21:55:05.990Z,7.23
2023-04-25T21:57:37.833Z,7.83
2023-04-25T22:00:21.223Z,7.30
2023-04-25T22:02:56.712Z,6.73
2023-04-25T22:05:29.522Z,6.93
2023-04-25T22:08:03.525Z,7.03
2023-04-25T22:10:35.457Z,6.77
2023-04-25T22:13:07.296Z,6.37
2023-04-25T22:15:39.045Z,6.87
2023-04-25T22:18:11.331Z,6.23
2023-04-25T22:20:44.192Z,5.80
2023-04-25T22:23:17.214Z,5.47
2023-04-25T22:25:49.088Z,5.47
2023-04-25T22:28:21.465Z,5.53
2023-04-25T22:30:53.453Z,5.93
2023-04-25T22:33:25.294Z,6.13
2023-04-25T22:35:57.136Z,5.80
2023-04-25T22:38:29.590Z,6.20
2023-04-25T22:41:01.552Z,6.13
2023-04-25T22:43:33.729Z,5.67
2023-04-25T22:46:07.473Z,7.00
2023-04-25T22:48:39.543Z,6.03
2023-04-25T22:51:11.770Z,6.47
2023-04-25T22:53:45.305Z,5.80
2023-04-25T22:56:17.413Z,5.57
2023-04-25T22:58:50.878Z,6.27
2023-04-25T23:01:22.924Z,6.60
2023-04-25T23:03:55.027Z,6.10
2023-04-25T23:06:26.981Z,6.10
2023-04-25T23:08:58.683Z,5.97
2023-04-25T23:11:30.562Z,6.60
2023-04-25T23:14:03.851Z,6.50
2023-04-25T23:16:35.983Z,5.60
2023-04-25T23:19:08.067Z,5.67
2023-04-25T23:21:40.224Z,4.77
2023-04-25T23:24:12.643Z,3.83
2023-04-25T23:26:44.503Z,3.13
2023-04-25T23:29:19.064Z,3.00
2023-04-25T23:31:53.748Z,2.43
2023-04-25T23:34:25.519Z,2.00
2023-04-25T23:36:58.116Z,1.63
2023-04-25T23:39:30.577Z,1.87
2023-04-25T23:42:02.273Z,1.53
2023-04-25T23:44:33.973Z,1.20
2023-04-25T23:47:05.706Z,1.10
2023-04-25T23:49:37.595Z,1.27
2023-04-25T23:52:09.889Z,1.00
2023-04-25T23:54:41.690Z,1.30
2023-04-25T23:57:13.758Z,1.10
2023-04-25T23:59:45.573Z,1.17
